Flight Track Log - Related Links

Times and Time Zones

All times are in EDT time to prevent confusion due to time zone crossing. See the AWI3704 flight status page for this flight to view local times or setup timezone preferences in your user account.

Time Position Orientation Groundspeed Altitude Reporting Facility
EDT Latitude Longitude Course Direction KTS MPH feet Rate Location/Type
Sat 11:38:00 AM 42.6925 -73.8017 223° Southwest 188 216 2,000  Level Boston Center
Sat 11:38:37 AM 42.6550 -73.7953 173° South 217 250 3,500 2,400 Climbing Boston Center
Sat 11:39:00 AM 42.7334 -74.1641 270° West  Level FlightAware Approximate
Sat 11:39:40 AM 42.6269 -73.8650 241° Southwest 218 251 6,000  Level Boston Center
Sat 11:40:00 AM 42.7333 -74.2855 270° West  Level FlightAware Approximate
Sat 11:40:40 AM 42.5989 -73.9406 243° Southwest 218 251 7,700  Level Boston Center
Sat 11:41:00 AM 42.6790 -74.3758 220° Southwest  Level FlightAware Approximate
Sat 11:41:40 AM 42.5644 -74.0217 240° Southwest 242 278 10,300  Level Boston Center
Sat 11:42:00 AM 42.6103 -74.4530 220° Southwest  Level FlightAware Approximate
Sat 11:42:40 AM 42.5319 -74.1025 241° Southwest 260 299 12,100  Level Boston Center
Sat 11:43:00 AM 42.5435 -74.5331 223° Southwest  Level FlightAware Approximate
Sat 11:43:40 AM 42.4889 -74.2056 240° Southwest 281 323 13,300  Level Boston Center
Sat 11:44:40 AM 42.4497 -74.3000 241° Southwest 306 352 14,900 1,400 Climbing Boston Center
Sat 11:45:40 AM 42.4019 -74.4167 241° Southwest 312 359 16,100 600 Climbing Boston Center
Sat 11:46:40 AM 42.3561 -74.5275 241° Southwest 331 381 16,100  Level Boston Center
Sat 11:48:31 AM 42.2714 -74.7336 241° Southwest 331 381 16,100  Level New York Center
Sat 11:49:32 AM 42.2286 -74.8344 240° Southwest 319 367 16,100  Level New York Center
Sat 11:50:33 AM 42.1875 -74.9356 241° Southwest 313 360 16,100  Level New York Center
Sat 11:51:30 AM 42.1183 -75.0094 218° Southwest 313 360 16,100  Level New York Center
Sat 11:52:32 AM 42.0433 -75.0717 212° Southwest 318 366 16,100  Level New York Center
Sat 11:53:30 AM 41.9658 -75.1361 212° Southwest 323 372 16,100  Level New York Center
Sat 11:54:30 AM 41.8972 -75.1903 210° Southwest 328 377 16,100 -347 Level New York Center
Sat 11:55:31 AM 41.8222 -75.2519 212° Southwest 328 377 15,400 -1,140 Descending New York Center
Sat 11:56:31 AM 41.7383 -75.3186 211° Southwest 328 377 13,800 -1,500 Descending New York Center
Sat 11:57:31 AM 41.6653 -75.3775 211° Southwest 323 372 12,400 -850 Descending New York Center
Sat 11:58:31 AM 41.5922 -75.4364 211° Southwest 323 372 12,100 -149 Descending New York Center
Sat 11:59:32 AM 41.5256 -75.4897 211° Southwest 323 372 12,100  Level New York Center
Sat 12:00:32 PM 41.4525 -75.5483 211° Southwest 317 365 12,100 -51 Level New York Center
Sat 12:01:30 PM 41.3708 -75.6117 210° Southwest 317 365 12,000 -51 Descending New York Center
Sat 12:02:30 PM 41.3019 -75.6647 210° Southwest 317 365 12,000  Level New York Center
Sat 12:03:31 PM 41.2114 -75.6883 191° South 312 359 12,000  Level New York Center
Sat 12:04:33 PM 41.1239 -75.6875 180° South 317 365 12,000  Level New York Center
Sat 12:05:31 PM 41.0425 -75.6872 180° South 322 371 12,000  Level New York Center
Sat 12:06:32 PM 40.9544 -75.6561 165° South 328 377 12,000 -248 Level New York Center
Sat 12:07:32 PM 40.8561 -75.6106 161° South 339 390 11,500 -763 Descending New York Center
Sat 12:08:30 PM 40.7703 -75.5744 162° South 339 390 10,500 -763 Descending New York Center
Sat 12:09:30 PM 40.6842 -75.5356 161° South 334 384 10,000 -248 Descending New York Center
Sat 12:10:31 PM 40.6022 -75.4997 162° South 324 373 10,000  Level New York Center
Sat 12:11:32 PM 40.5225 -75.4642 161° South 313 360 10,000  Level New York Center
Sat 12:12:32 PM 40.4425 -75.4289 161° South 308 354 10,000 -403 Level New York Center
Sat 12:13:31 PM 40.3631 -75.3825 156° South 303 349 9,200 -1,150 Descending New York Center
Sat 12:14:32 PM 40.2958 -75.3428 156° South 303 349 7,700 -1,082 Descending New York Center
Sat 12:15:33 PM 40.2247 -75.3000 155° Southeast 303 349 7,000 -655 Descending New York Center
Sat 12:16:31 PM 40.1456 -75.2431 151° Southeast 298 343 6,400 -894 Descending New York Center
Sat 12:17:07 PM 40.1167 -75.2000 131° Southeast 288 331 5,600 -1,438 Descending Philadelphia TRACON
Sat 12:18:07 PM 40.0667 -75.1167 128° Southeast 283 326 4,100 -1,500 Descending Philadelphia TRACON

Login

Don't have an account? Register now (free) for customized features, flight alerts, and more!